Saranac Lake, NY

1:23 PM EST on November 24, 2014 (GMT -0500)
North Country Community College | Change Station
CLOSE
Current Station
Personal Weather Station
Location: Saranac Lake, NY
Elevation: 1600 ft
Nearby Weather Stations

Elev 1600 ft 44.32 °N, 74.12 °W | Updated 12 seconds ago

Overcast
Overcast
61.8 °F
Feels Like 61.8 °F
N
0.0
Wind Variable Wind from WNW
Gusts 12.0 mph

Today
High -- | Low -- °F
--% Chance of Precip.
Yesterday
High -- | Low -- °F
Precip. -- in
7:03 AM 4:22 PM
Waxing Crescent, 6% visible
Pressure 29.39 in
Visibility 10.0 miles
Clouds Mostly Cloudy 3700 ft
Overcast 6500 ft
Dew Point 52 °F
Humidity 71%
Rainfall 0.43 in
Snow Depth Not available.
UV 1 out of 12
Pollen .10 out of 12
Air Quality Not available.
Flu Activity Not available.
METAR KSLK 241751Z AUTO 22019G25KT 10SM BKN037 OVC065 17/10 A2938 RMK AO2 PK WND 21033/1702 SLP952 60000 T01670100 10172 20106 56020

More Conditions Fewer Conditions

Pressure 29.39 in
Visibility 10.0 miles
Clouds Mostly Cloudy 3700 ft
Overcast 6500 ft
Dew Point 52 °F
Humidity 71%
Rainfall 0.43 in
Snow Depth Not available.
UV 1 out of 12
Pollen .10 out of 12
Air Quality Not available.
Flu Activity Not available.
METAR KSLK 241751Z AUTO 22019G25KT 10SM BKN037 OVC065 17/10 A2938 RMK AO2 PK WND 21033/1702 SLP952 60000 T01670100 10172 20106 56020

More Conditions Fewer Conditions

10-Day Weather Forecast

Almanac

Astronomy

Nov. 24, 2014 Rise Set
Actual Time
Civil Twilight
Nautical Twilight
Astronomical Twilight
Moon
Length of Visible Light
Length of Day
Tomorrow will be .
, % of the Moon is Illuminated

Today's Extremes

State Highs State Lows

Community

WunderPhotos

Upload Photos

1,773,386 photos uploaded!

WunderBlogs® & News

Nearby

Air Quality

  Air Quality AQ Index Pollutant
Not available.

Snow Depth

Station Depth Elevation

Earthquake Activity

City Distance Mag. Time & Date
Minimum magnitude displayed is 2.5.

Coastal Water Temperatures

Place Temperature

Nearby Weather Stations